createdAt,value
2017-08-16T00:01:43.239Z,101455.91
2017-08-16T00:04:11.084Z,101449.84
2017-08-16T00:06:38.916Z,101448.85
2017-08-16T00:09:06.817Z,101454.45
2017-08-16T00:11:34.653Z,101453.11
2017-08-16T00:14:02.512Z,101460.41
2017-08-16T00:16:30.249Z,101465.45
2017-08-16T00:18:58.131Z,101464.28
2017-08-16T00:21:25.958Z,101467.39
2017-08-16T00:23:53.728Z,101468.87
2017-08-16T00:26:21.538Z,101468.17
2017-08-16T00:28:49.420Z,101472.65
2017-08-16T00:31:17.297Z,101469.99
2017-08-16T00:33:45.170Z,101473.98
2017-08-16T00:36:12.998Z,101469.65
2017-08-16T00:38:40.893Z,101476.41
2017-08-16T00:41:08.768Z,101482.55
2017-08-16T00:43:37.670Z,101484.02
2017-08-16T00:46:05.552Z,101472.64
2017-08-16T00:51:05.536Z,101455.34
2017-08-16T00:53:33.374Z,101467.55
2017-08-16T00:56:01.245Z,101483.44
2017-08-16T00:58:29.059Z,101483.31
2017-08-16T01:00:56.993Z,101484.09
2017-08-16T01:03:24.854Z,101485.91
2017-08-16T01:05:52.724Z,101480.10
2017-08-16T01:08:20.549Z,101476.63
2017-08-16T01:10:48.392Z,101470.88
2017-08-16T01:13:16.218Z,101465.53
2017-08-16T01:15:44.048Z,101462.11
2017-08-16T01:18:11.935Z,101471.80
2017-08-16T01:20:39.702Z,101483.94
2017-08-16T01:23:07.559Z,101488.28
2017-08-16T01:25:35.381Z,101495.24
2017-08-16T01:28:03.248Z,101495.61
2017-08-16T01:30:31.143Z,101480.47
2017-08-16T01:32:59.020Z,101477.28
2017-08-16T01:35:26.844Z,101491.33
2017-08-16T01:37:54.699Z,101490.36
2017-08-16T01:40:22.516Z,101489.43
2017-08-16T01:42:50.288Z,101495.55
2017-08-16T01:45:18.165Z,101500.05
2017-08-16T01:47:45.972Z,101497.69
2017-08-16T01:50:13.841Z,101499.16
2017-08-16T01:52:41.672Z,101504.90
2017-08-16T01:55:09.530Z,101500.95
2017-08-16T01:57:37.346Z,101492.55
2017-08-16T02:00:05.226Z,101491.58
2017-08-16T02:02:33.042Z,101496.55
2017-08-16T02:05:00.927Z,101503.70
2017-08-16T02:07:28.762Z,101511.92
2017-08-16T02:09:56.669Z,101510.67
2017-08-16T02:12:24.485Z,101509.22
2017-08-16T02:14:52.620Z,101513.64
2017-08-16T02:17:20.458Z,101519.48
2017-08-16T02:19:48.332Z,101517.50
2017-08-16T02:22:16.220Z,101515.19
2017-08-16T02:24:44.073Z,101511.70
2017-08-16T02:27:11.938Z,101521.86
2017-08-16T02:29:39.785Z,101518.19
2017-08-16T02:32:07.654Z,101513.66
2017-08-16T02:34:35.473Z,101508.37
2017-08-16T02:37:03.343Z,101519.07
2017-08-16T02:39:31.159Z,101510.84
2017-08-16T02:41:58.930Z,101509.84
2017-08-16T02:44:26.760Z,101512.44
2017-08-16T02:46:54.629Z,101511.30
2017-08-16T02:49:22.483Z,101515.01
2017-08-16T02:51:50.350Z,101519.07
2017-08-16T02:54:18.229Z,101514.18
2017-08-16T02:56:46.088Z,101515.26
2017-08-16T02:59:13.966Z,101516.30
2017-08-16T03:01:41.891Z,101503.63
2017-08-16T03:04:09.820Z,101507.19
2017-08-16T03:06:37.655Z,101505.14
2017-08-16T03:09:05.611Z,101517.41
2017-08-16T03:11:33.468Z,101525.56
2017-08-16T03:14:01.382Z,101521.12
2017-08-16T03:16:29.139Z,101517.05
2017-08-16T03:18:57.029Z,101515.51
2017-08-16T03:21:24.945Z,101528.13
2017-08-16T03:23:52.823Z,101525.16
2017-08-16T03:26:20.635Z,101531.37
2017-08-16T03:28:48.481Z,101538.69
2017-08-16T03:31:16.389Z,101549.90
2017-08-16T03:33:44.274Z,101542.68
2017-08-16T03:36:12.197Z,101546.85
2017-08-16T03:38:40.068Z,101557.12
2017-08-16T03:41:07.898Z,101568.40
2017-08-16T03:43:35.772Z,101560.47
2017-08-16T03:46:03.678Z,101561.73
2017-08-16T03:48:31.566Z,101567.09
2017-08-16T03:50:59.495Z,101573.24
2017-08-16T03:53:27.392Z,101573.63
2017-08-16T03:55:55.281Z,101570.42
2017-08-16T03:58:23.141Z,101567.61
2017-08-16T04:00:50.985Z,101570.02
2017-08-16T04:03:18.920Z,101584.56
2017-08-16T04:05:46.795Z,101581.91
2017-08-16T04:08:14.733Z,101585.40
2017-08-16T04:10:42.663Z,101590.42
2017-08-16T04:13:10.456Z,101590.53
2017-08-16T04:15:38.249Z,101593.34
2017-08-16T04:18:06.197Z,101597.98
2017-08-16T04:20:34.086Z,101602.16
2017-08-16T04:23:02.026Z,101608.45
2017-08-16T04:25:29.918Z,101608.45
2017-08-16T04:27:57.844Z,101609.20
2017-08-16T04:30:25.696Z,101613.00
2017-08-16T04:32:53.615Z,101613.67
2017-08-16T04:35:21.503Z,101611.76
2017-08-16T04:37:49.448Z,101623.34
2017-08-16T04:40:17.311Z,101631.11
2017-08-16T04:42:45.149Z,101648.07
2017-08-16T04:45:12.993Z,101649.31
2017-08-16T04:47:40.772Z,101651.97
2017-08-16T04:50:08.609Z,101647.39
2017-08-16T04:52:36.368Z,101654.44
2017-08-16T04:55:04.164Z,101656.41
2017-08-16T04:57:31.944Z,101658.48
2017-08-16T04:59:59.772Z,101657.49
2017-08-16T05:02:27.559Z,101668.66
2017-08-16T05:04:55.323Z,101670.50
2017-08-16T05:07:23.103Z,101678.63
2017-08-16T05:09:50.903Z,101675.03
2017-08-16T05:12:18.706Z,101685.73
2017-08-16T05:14:46.585Z,101694.77
2017-08-16T05:17:14.376Z,101694.95
2017-08-16T05:19:42.140Z,101693.77
2017-08-16T05:22:09.976Z,101697.94
2017-08-16T05:24:37.727Z,101694.18
2017-08-16T05:27:05.558Z,101693.34
2017-08-16T05:29:33.432Z,101696.95
2017-08-16T05:32:01.231Z,101713.28
2017-08-16T05:34:29.001Z,101718.56
2017-08-16T05:36:56.841Z,101722.63
2017-08-16T05:39:24.653Z,101731.77
2017-08-16T05:41:52.499Z,101742.78
2017-08-16T05:44:20.260Z,101744.97
2017-08-16T05:46:48.087Z,101742.53
2017-08-16T05:49:15.876Z,101735.58
2017-08-16T05:51:43.669Z,101743.16
2017-08-16T05:54:11.437Z,101742.31
2017-08-16T05:56:39.216Z,101747.33
2017-08-16T05:59:07.008Z,101752.24
2017-08-16T06:01:34.747Z,101759.41
2017-08-16T06:04:02.586Z,101757.67
2017-08-16T06:06:30.296Z,101756.63
2017-08-16T06:08:58.136Z,101758.35
2017-08-16T06:11:25.870Z,101764.31
2017-08-16T06:13:53.667Z,101764.52
2017-08-16T06:16:21.416Z,101758.67
2017-08-16T06:18:49.200Z,101752.52
2017-08-16T06:21:16.989Z,101756.89
2017-08-16T06:23:44.767Z,101760.55
2017-08-16T06:26:12.511Z,101771.84
2017-08-16T06:28:40.237Z,101775.18
2017-08-16T06:31:08.027Z,101768.66
2017-08-16T06:33:35.778Z,101778.61
2017-08-16T06:36:03.553Z,101780.14
2017-08-16T06:38:31.285Z,101780.23
2017-08-16T06:40:59.089Z,101775.13
2017-08-16T06:43:26.843Z,101777.00
2017-08-16T06:45:54.712Z,101776.06
2017-08-16T06:48:22.678Z,101781.33
2017-08-16T06:50:50.541Z,101791.92
2017-08-16T06:53:18.352Z,101788.33
2017-08-16T06:55:46.237Z,101792.30
2017-08-16T06:58:14.065Z,101793.45
2017-08-16T07:00:42.022Z,101795.34
2017-08-16T07:03:09.864Z,101796.73
2017-08-16T07:05:37.708Z,101797.93
2017-08-16T07:08:05.660Z,101789.04
2017-08-16T07:10:33.531Z,101796.48
2017-08-16T07:13:01.441Z,101797.12
2017-08-16T07:15:29.371Z,101799.20
2017-08-16T07:17:57.174Z,101799.94
2017-08-16T07:20:24.997Z,101796.41
2017-08-16T07:22:52.806Z,101802.72
2017-08-16T07:25:20.604Z,101792.30
2017-08-16T07:27:48.406Z,101795.99
2017-08-16T07:30:16.224Z,101800.47
2017-08-16T07:32:44.007Z,101798.30
2017-08-16T07:35:11.790Z,101793.59
2017-08-16T07:37:39.592Z,101801.30
2017-08-16T07:40:07.322Z,101793.86
2017-08-16T07:42:35.212Z,101802.55
2017-08-16T07:45:03.036Z,101808.17
2017-08-16T07:47:30.776Z,101807.70
2017-08-16T07:49:58.651Z,101815.23
2017-08-16T07:52:26.494Z,101816.59
2017-08-16T07:54:54.418Z,101816.56
2017-08-16T07:57:22.270Z,101819.95
2017-08-16T07:59:50.168Z,101824.48
2017-08-16T08:02:17.927Z,101820.98
2017-08-16T08:04:45.820Z,101825.15
2017-08-16T08:07:13.674Z,101828.77
2017-08-16T08:09:41.623Z,101834.46
2017-08-16T08:12:09.484Z,101838.23
2017-08-16T08:14:37.313Z,101840.18
2017-08-16T08:17:05.146Z,101847.22
2017-08-16T08:19:32.899Z,101848.82
2017-08-16T08:22:00.685Z,101858.72
2017-08-16T08:24:28.477Z,101848.58
2017-08-16T08:26:56.417Z,101857.82
2017-08-16T08:29:24.184Z,101863.80
2017-08-16T08:31:51.973Z,101857.61
2017-08-16T08:34:19.830Z,101858.30
2017-08-16T08:36:47.628Z,101859.41
2017-08-16T08:39:15.463Z,101866.05
2017-08-16T08:41:43.371Z,101868.84
2017-08-16T08:44:11.232Z,101869.57
2017-08-16T08:46:39.197Z,101869.86
2017-08-16T08:49:07.043Z,101876.45
2017-08-16T08:51:34.890Z,101887.88
2017-08-16T08:54:02.806Z,101876.67
2017-08-16T08:56:30.684Z,101882.97
2017-08-16T08:58:58.587Z,101881.25
2017-08-16T09:01:26.426Z,101884.95
2017-08-16T09:03:54.307Z,101886.38
2017-08-16T09:06:22.184Z,101888.20
2017-08-16T09:08:50.109Z,101882.22
2017-08-16T09:11:17.847Z,101886.23
2017-08-16T09:13:45.777Z,101891.62
2017-08-16T09:16:13.633Z,101892.82
2017-08-16T09:18:41.497Z,101891.71
2017-08-16T09:21:09.302Z,101898.67
2017-08-16T09:23:37.158Z,101895.38
2017-08-16T09:26:05.103Z,101898.84
2017-08-16T09:28:32.963Z,101897.91
2017-08-16T09:31:00.841Z,101896.95
2017-08-16T09:33:28.684Z,101901.23
2017-08-16T09:35:56.566Z,101892.85
2017-08-16T09:38:24.395Z,101895.16
2017-08-16T09:40:52.322Z,101900.49
2017-08-16T09:43:20.202Z,101901.77
2017-08-16T09:45:48.088Z,101904.22
2017-08-16T09:48:15.941Z,101912.77
2017-08-16T09:50:43.788Z,101909.34
2017-08-16T09:53:11.681Z,101910.58
2017-08-16T09:55:39.515Z,101916.14
2017-08-16T09:58:07.416Z,101913.89
2017-08-16T10:00:35.245Z,101916.17
2017-08-16T10:03:03.150Z,101922.38
2017-08-16T10:05:30.998Z,101923.03
2017-08-16T10:07:58.864Z,101923.38
2017-08-16T10:10:26.778Z,101924.60
2017-08-16T10:12:54.663Z,101921.59
2017-08-16T10:15:22.505Z,101920.02
2017-08-16T10:17:50.308Z,101919.57
2017-08-16T10:20:18.180Z,101919.46
2017-08-16T10:22:46.008Z,101919.05
2017-08-16T10:25:13.928Z,101910.12
2017-08-16T10:27:41.764Z,101912.50
2017-08-16T10:30:09.671Z,101912.92
2017-08-16T10:32:37.402Z,101917.45
2017-08-16T10:35:05.220Z,101920.67
2017-08-16T10:37:32.949Z,101926.86
2017-08-16T10:40:00.766Z,101927.21
2017-08-16T10:42:28.650Z,101925.37
2017-08-16T10:44:56.470Z,101931.85
2017-08-16T10:47:24.326Z,101932.36
2017-08-16T10:49:52.241Z,101936.61
2017-08-16T10:52:20.207Z,101946.19
2017-08-16T10:54:48.091Z,101940.37
2017-08-16T10:57:15.939Z,101944.33
2017-08-16T10:59:43.777Z,101943.75
2017-08-16T11:02:11.650Z,101938.93
2017-08-16T11:04:39.486Z,101933.27
2017-08-16T11:07:07.370Z,101934.91
2017-08-16T11:09:35.233Z,101934.87
2017-08-16T11:12:03.120Z,101941.52
2017-08-16T11:14:30.955Z,101931.20
2017-08-16T11:16:58.895Z,101931.95
2017-08-16T11:19:26.750Z,101941.28
2017-08-16T11:21:54.661Z,101941.78
2017-08-16T11:24:22.533Z,101945.13
2017-08-16T11:26:50.379Z,101943.94
2017-08-16T11:29:18.165Z,101944.75
2017-08-16T11:31:45.881Z,101947.59
2017-08-16T11:34:13.659Z,101949.35
2017-08-16T11:36:41.378Z,101949.52
2017-08-16T11:39:09.163Z,101951.81
2017-08-16T11:41:36.911Z,101949.56
2017-08-16T11:44:04.688Z,101946.02
2017-08-16T11:46:32.404Z,101943.45
2017-08-16T11:49:00.167Z,101945.03
2017-08-16T11:51:27.888Z,101942.73
2017-08-16T11:53:55.641Z,101941.53
2017-08-16T11:56:23.386Z,101945.02
2017-08-16T11:58:51.135Z,101949.81
2017-08-16T12:01:18.936Z,101945.08
2017-08-16T12:03:46.655Z,101952.88
2017-08-16T12:06:14.466Z,101952.48
2017-08-16T12:08:42.239Z,101943.26
2017-08-16T12:11:10.086Z,101942.98
2017-08-16T12:13:37.811Z,101945.44
2017-08-16T12:16:05.581Z,101946.00
2017-08-16T12:18:33.309Z,101939.06
2017-08-16T12:21:01.068Z,101937.48
2017-08-16T12:23:28.809Z,101939.84
2017-08-16T12:25:56.578Z,101935.70
2017-08-16T12:28:24.337Z,101937.26
2017-08-16T12:30:52.094Z,101934.26
2017-08-16T12:33:20.462Z,101933.14
2017-08-16T12:35:48.322Z,101944.61
2017-08-16T12:38:16.210Z,101943.06
2017-08-16T12:40:44.031Z,101946.22
2017-08-16T12:43:11.893Z,101940.20
2017-08-16T12:45:39.720Z,101937.58
2017-08-16T12:48:07.578Z,101937.48
2017-08-16T12:50:35.323Z,101947.34
2017-08-16T12:53:03.107Z,101936.53
2017-08-16T12:55:30.886Z,101942.05
2017-08-16T12:57:58.735Z,101935.14
2017-08-16T13:00:26.552Z,101933.30
2017-08-16T13:02:54.393Z,101932.73
2017-08-16T13:05:22.328Z,101937.23
2017-08-16T13:07:50.220Z,101935.81
2017-08-16T13:10:18.164Z,101931.34
2017-08-16T13:12:45.920Z,101925.72
2017-08-16T13:15:13.787Z,101938.83
2017-08-16T13:17:41.554Z,101941.56
2017-08-16T13:20:09.445Z,101933.89
2017-08-16T13:22:37.287Z,101930.25
2017-08-16T13:25:05.186Z,101923.98
2017-08-16T13:27:33.010Z,101924.51
2017-08-16T13:30:00.876Z,101923.50
2017-08-16T13:32:28.714Z,101924.27
2017-08-16T13:34:56.597Z,101927.34
2017-08-16T13:37:24.426Z,101935.84
2017-08-16T13:39:52.248Z,101934.73
2017-08-16T13:42:20.057Z,101933.71
2017-08-16T13:44:47.913Z,101929.02
2017-08-16T13:47:15.817Z,101924.34
2017-08-16T13:49:43.649Z,101925.34
2017-08-16T13:52:11.550Z,101928.80
2017-08-16T13:54:39.369Z,101928.52
2017-08-16T13:57:07.137Z,101929.55
2017-08-16T13:59:35.011Z,101921.63
2017-08-16T14:02:02.893Z,101928.15
2017-08-16T14:04:30.717Z,101922.23
2017-08-16T14:06:58.578Z,101926.00
2017-08-16T14:09:26.437Z,101925.80
2017-08-16T14:11:54.235Z,101914.97
2017-08-16T14:14:22.080Z,101919.64
2017-08-16T14:16:49.912Z,101917.53
2017-08-16T14:19:17.801Z,101920.36
2017-08-16T14:21:45.631Z,101910.44
2017-08-16T14:24:13.506Z,101909.51
2017-08-16T14:26:41.346Z,101913.30
2017-08-16T14:29:09.206Z,101909.81
2017-08-16T14:31:37.048Z,101914.59
2017-08-16T14:34:04.936Z,101910.94
2017-08-16T14:36:32.745Z,101910.58
2017-08-16T14:39:00.633Z,101911.34
2017-08-16T14:41:28.371Z,101910.66
2017-08-16T14:43:56.257Z,101908.14
2017-08-16T14:46:24.007Z,101902.76
2017-08-16T14:48:51.894Z,101902.03
2017-08-16T14:51:19.766Z,101898.44
2017-08-16T14:53:47.591Z,101899.03
2017-08-16T14:56:15.464Z,101897.23
2017-08-16T14:58:43.288Z,101900.61
2017-08-16T15:01:11.160Z,101901.89
2017-08-16T15:03:39.004Z,101905.66
2017-08-16T15:06:06.887Z,101898.86
2017-08-16T15:08:34.697Z,101899.17
2017-08-16T15:11:02.645Z,101898.16
2017-08-16T15:13:30.386Z,101897.23
2017-08-16T15:15:58.180Z,101898.06
2017-08-16T15:18:25.930Z,101900.86
2017-08-16T15:20:53.760Z,101906.93
2017-08-16T15:23:21.650Z,101906.80
2017-08-16T15:25:49.461Z,101901.61
2017-08-16T15:28:17.327Z,101904.14
2017-08-16T15:30:45.137Z,101910.82
2017-08-16T15:33:13.022Z,101909.51
2017-08-16T15:35:40.849Z,101911.91
2017-08-16T15:38:08.740Z,101905.55
2017-08-16T15:40:36.561Z,101918.42
2017-08-16T15:43:04.444Z,101919.30
2017-08-16T15:45:32.267Z,101913.81
2017-08-16T15:48:00.153Z,101915.66
2017-08-16T15:50:28.005Z,101914.53
2017-08-16T15:52:55.815Z,101908.07
2017-08-16T15:55:23.741Z,101912.64
2017-08-16T15:57:51.576Z,101918.65
2017-08-16T16:00:19.354Z,101920.27
2017-08-16T16:02:47.189Z,101917.95
2017-08-16T16:05:14.978Z,101920.61
2017-08-16T16:07:42.716Z,101916.67
2017-08-16T16:10:10.630Z,101922.69
2017-08-16T16:12:38.478Z,101929.81
2017-08-16T16:15:06.524Z,101930.27
2017-08-16T16:17:34.361Z,101924.66
2017-08-16T16:20:02.249Z,101928.92
2017-08-16T16:22:30.084Z,101933.00
2017-08-16T16:24:57.950Z,101926.62
2017-08-16T16:27:25.803Z,101923.69
2017-08-16T16:29:53.640Z,101929.33
2017-08-16T16:32:21.477Z,101924.62
2017-08-16T16:34:49.228Z,101926.66
2017-08-16T16:37:17.103Z,101924.64
2017-08-16T16:39:44.947Z,101924.92
2017-08-16T16:42:12.842Z,101932.89
2017-08-16T16:44:40.695Z,101933.08
2017-08-16T16:47:08.556Z,101933.84
2017-08-16T16:49:36.417Z,101933.45
2017-08-16T16:52:04.244Z,101942.45
2017-08-16T16:54:32.145Z,101940.12
2017-08-16T16:56:59.968Z,101933.97
2017-08-16T16:59:27.836Z,101932.24
2017-08-16T17:01:55.672Z,101926.73
2017-08-16T17:04:23.441Z,101923.59
2017-08-16T17:06:51.171Z,101922.53
2017-08-16T17:09:18.965Z,101926.59
2017-08-16T17:11:46.708Z,101917.27
2017-08-16T17:14:14.493Z,101919.72
2017-08-16T17:16:42.209Z,101923.37
2017-08-16T17:19:10.006Z,101927.08
2017-08-16T17:21:37.771Z,101924.59
2017-08-16T17:24:05.600Z,101926.08
2017-08-16T17:26:33.404Z,101935.94
2017-08-16T17:29:01.146Z,101937.23
2017-08-16T17:31:28.925Z,101933.97
2017-08-16T17:33:56.777Z,101938.54
2017-08-16T17:36:24.593Z,101943.25
2017-08-16T17:38:52.466Z,101949.33
2017-08-16T17:41:20.353Z,101945.63
2017-08-16T17:43:48.209Z,101948.34
2017-08-16T17:46:16.105Z,101941.94
2017-08-16T17:48:43.932Z,101940.98
2017-08-16T17:51:11.748Z,101947.78
2017-08-16T17:53:39.485Z,101948.23
2017-08-16T17:56:07.265Z,101945.72
2017-08-16T17:58:35.094Z,101951.12
2017-08-16T18:01:02.987Z,101957.23
2017-08-16T18:03:30.885Z,101953.71
2017-08-16T18:05:58.748Z,101957.55
2017-08-16T18:08:26.653Z,101959.02
2017-08-16T18:10:54.537Z,101957.78
2017-08-16T18:13:22.419Z,101957.00
2017-08-16T18:15:50.249Z,101956.73
2017-08-16T18:18:18.072Z,101955.97
2017-08-16T18:20:45.800Z,101947.44
2017-08-16T18:23:13.617Z,101950.03
2017-08-16T18:25:41.381Z,101956.28
2017-08-16T18:28:09.178Z,101954.05
2017-08-16T18:30:36.941Z,101953.99
2017-08-16T18:33:04.713Z,101953.83
2017-08-16T18:35:32.466Z,101961.44
2017-08-16T18:38:00.300Z,101952.05
2017-08-16T18:40:28.059Z,101955.42
2017-08-16T18:42:58.991Z,101959.59
2017-08-16T18:45:28.661Z,101957.77
2017-08-16T18:47:58.129Z,101964.86
2017-08-16T18:50:27.390Z,101966.72
2017-08-16T18:52:57.118Z,101967.75
2017-08-16T18:55:26.298Z,101971.56
2017-08-16T18:57:55.350Z,101968.62
2017-08-16T19:00:24.595Z,101969.39
2017-08-16T19:02:55.513Z,101970.34
2017-08-16T19:05:26.257Z,101976.33
2017-08-16T19:07:55.243Z,101972.64
2017-08-16T19:10:25.618Z,101981.22
2017-08-16T19:12:55.229Z,101977.50
2017-08-16T19:15:24.616Z,101975.99
2017-08-16T19:17:54.717Z,101981.91
2017-08-16T19:20:23.145Z,101984.56
2017-08-16T19:22:52.778Z,101986.41
2017-08-16T19:25:21.397Z,101993.45
2017-08-16T19:27:51.001Z,101994.11
2017-08-16T19:30:21.617Z,101990.89
2017-08-16T19:32:52.029Z,101990.27
2017-08-16T19:35:22.466Z,101994.16
2017-08-16T19:37:51.216Z,101995.47
2017-08-16T19:40:20.568Z,101989.94
2017-08-16T19:42:50.927Z,101995.16
2017-08-16T19:45:19.742Z,101995.10
2017-08-16T19:47:50.223Z,101992.70
2017-08-16T19:50:20.411Z,101990.82
2017-08-16T19:52:50.706Z,101992.97
2017-08-16T19:55:19.042Z,101989.67
2017-08-16T19:57:50.927Z,101986.44
2017-08-16T20:00:20.970Z,101987.25
2017-08-16T20:02:52.077Z,101988.92
2017-08-16T20:05:20.954Z,101985.84
2017-08-16T20:07:50.421Z,101981.48
2017-08-16T20:10:18.834Z,101978.41
2017-08-16T20:12:47.556Z,101982.56
2017-08-16T20:15:18.520Z,101973.19
2017-08-16T20:17:50.186Z,101977.83
2017-08-16T20:20:19.224Z,101971.68
2017-08-16T20:22:48.565Z,101973.97
2017-08-16T20:25:17.621Z,101974.31
2017-08-16T20:27:48.202Z,101978.53
2017-08-16T20:30:17.886Z,101978.35
2017-08-16T20:32:47.284Z,101974.94
2017-08-16T20:35:20.225Z,101979.00
2017-08-16T20:37:50.176Z,101978.24
2017-08-16T20:40:18.029Z,101976.84
2017-08-16T20:42:46.008Z,101978.89
2017-08-16T20:45:17.361Z,101973.34
2017-08-16T20:47:48.561Z,101973.07
2017-08-16T20:50:16.339Z,101971.33
2017-08-16T20:52:44.639Z,101983.66
2017-08-16T20:55:18.921Z,101981.16
2017-08-16T20:57:47.265Z,101994.44
2017-08-16T21:00:15.665Z,101983.19
2017-08-16T21:02:44.868Z,101986.72
2017-08-16T21:05:15.042Z,101984.97
2017-08-16T21:07:45.023Z,101986.09
2017-08-16T21:10:15.423Z,101987.99
2017-08-16T21:12:43.490Z,101983.36
2017-08-16T21:15:16.114Z,101978.41
2017-08-16T21:17:45.694Z,101971.69
2017-08-16T21:20:13.649Z,101970.97
2017-08-16T21:22:43.315Z,101973.14
2017-08-16T21:25:16.026Z,101969.42
2017-08-16T21:27:45.129Z,101977.94
2017-08-16T21:30:15.893Z,101979.26
2017-08-16T21:32:45.383Z,101979.34
2017-08-16T21:35:16.041Z,101978.35
2017-08-16T21:37:44.022Z,101980.80
2017-08-16T21:40:12.109Z,101983.75
2017-08-16T21:42:42.246Z,101986.77
2017-08-16T21:45:13.188Z,101988.34
2017-08-16T21:47:42.763Z,101981.73
2017-08-16T21:50:11.333Z,101973.38
2017-08-16T21:52:41.576Z,101974.52
2017-08-16T21:55:13.338Z,101980.13
2017-08-16T21:57:43.056Z,101978.50
2017-08-16T22:00:14.163Z,101981.45
2017-08-16T22:02:43.470Z,101982.63
2017-08-16T22:05:13.556Z,101984.19
2017-08-16T22:07:42.328Z,101980.59
2017-08-16T22:10:13.637Z,101989.78
2017-08-16T22:12:43.158Z,101979.19
2017-08-16T22:15:11.293Z,101980.45
2017-08-16T22:17:39.845Z,101975.19
2017-08-16T22:20:08.085Z,101972.31
2017-08-16T22:22:38.084Z,101962.77
2017-08-16T22:25:05.939Z,101963.41
2017-08-16T22:27:34.368Z,101965.39
2017-08-16T22:30:03.725Z,101966.92
2017-08-16T22:32:32.367Z,101967.73
2017-08-16T22:35:05.429Z,101968.83
2017-08-16T22:37:33.647Z,101963.29
2017-08-16T22:40:03.005Z,101961.15
2017-08-16T22:42:31.829Z,101962.91
2017-08-16T22:45:00.376Z,101958.20
2017-08-16T22:47:29.684Z,101951.38
2017-08-16T22:49:58.586Z,101949.47
2017-08-16T22:55:02.441Z,101951.15
2017-08-16T22:57:30.725Z,101945.87
2017-08-16T22:59:59.136Z,101943.62
2017-08-16T23:02:27.713Z,101942.29
2017-08-16T23:04:56.550Z,101947.55
2017-08-16T23:07:26.552Z,101944.36
2017-08-16T23:09:56.469Z,101939.40
2017-08-16T23:12:25.440Z,101942.68
2017-08-16T23:14:54.130Z,101940.09
2017-08-16T23:17:24.078Z,101942.59
2017-08-16T23:19:54.698Z,101943.38
2017-08-16T23:22:25.297Z,101940.55
2017-08-16T23:24:53.353Z,101943.94
2017-08-16T23:27:24.690Z,101939.34
2017-08-16T23:29:53.538Z,101935.73
2017-08-16T23:32:22.877Z,101933.40
2017-08-16T23:34:52.859Z,101935.16
2017-08-16T23:37:21.698Z,101937.12
2017-08-16T23:39:52.589Z,101933.25
2017-08-16T23:42:21.553Z,101931.80
2017-08-16T23:44:50.437Z,101928.91
2017-08-16T23:47:19.482Z,101930.18
2017-08-16T23:49:48.413Z,101927.94
2017-08-16T23:52:17.207Z,101926.64
2017-08-16T23:54:46.952Z,101923.33
2017-08-16T23:57:16.514Z,101922.67
2017-08-16T23:59:44.749Z,101917.78
